Time;durP1;ratioP1;P1;durP2;ratioP2;P2;SDS_P1;SDS_P2;PMS_P1;PMS_P2;Temp;Humidity;BMP_temperature;BMP_pressure;BME280_temperature;BME280_humidity;BME280_pressure;Samples;Min_cycle;Max_cycle;Signal;HPM_P1;HPM_P2
2022/03/02 00:00:34;;;;;;;13.50;8.70;;;;;;;-0.16;81.03;101782.54;107951;1244;69132;-69
2022/03/02 00:03:12;;;;;;;20.80;11.40;;;;;;;-0.01;80.94;101776.55;107763;1244;74566;-68
2022/03/02 00:05:41;;;;;;;20.60;10.80;;;;;;;0.04;80.72;101782.66;107873;1244;60705;-68
2022/03/02 00:08:10;;;;;;;15.20;9.10;;;;;;;0.05;80.38;101778.20;107879;1244;58862;-68
2022/03/02 00:10:39;;;;;;;17.30;11.00;;;;;;;-0.01;80.23;101776.55;107822;1244;73568;-66
2022/03/02 00:13:09;;;;;;;18.10;9.60;;;;;;;-0.06;80.45;101769.41;107913;1244;71336;-69
2022/03/02 00:15:41;;;;;;;19.90;11.10;;;;;;;-0.10;80.71;101769.11;107751;1244;69238;-70
2022/03/02 00:18:10;;;;;;;18.10;10.10;;;;;;;-0.12;80.95;101773.94;107867;1244;71960;-72
2022/03/02 00:20:39;;;;;;;23.30;11.50;;;;;;;-0.12;81.34;101769.65;107844;1244;59637;-71
2022/03/02 00:23:07;;;;;;;16.70;9.70;;;;;;;-0.07;81.24;101764.46;107762;1244;61633;-71
2022/03/02 00:25:36;;;;;;;20.90;10.90;;;;;;;-0.08;80.84;101762.41;107842;1244;75687;-72
2022/03/02 00:28:05;;;;;;;18.50;10.60;;;;;;;-0.11;81.27;101763.14;107827;1244;72368;-69
2022/03/02 00:30:34;;;;;;;19.40;10.30;;;;;;;-0.04;80.85;101761.34;107890;1244;70301;-70
2022/03/02 00:33:03;;;;;;;21.00;10.80;;;;;;;-0.02;80.54;101760.13;107962;1244;74137;-68
2022/03/02 00:35:32;;;;;;;20.60;10.90;;;;;;;-0.02;80.30;101757.37;107938;1244;61026;-69
2022/03/02 00:38:06;;;;;;;21.80;9.70;;;;;;;-0.04;80.92;101752.61;108011;1244;59481;-68
2022/03/02 00:40:35;;;;;;;20.80;11.50;;;;;;;0.00;80.57;101744.86;108114;1244;73656;-69
2022/03/02 00:43:05;;;;;;;21.50;11.20;;;;;;;0.07;80.55;101737.24;108006;1242;73216;-69
2022/03/02 00:45:34;;;;;;;17.80;10.10;;;;;;;0.06;80.47;101731.77;107936;1244;71887;-69
2022/03/02 00:48:06;;;;;;;20.60;12.00;;;;;;;-0.00;80.80;101733.90;107596;1244;74726;-72
2022/03/02 00:50:36;;;;;;;20.10;10.50;;;;;;;-0.03;80.84;101730.85;107992;1244;60704;-69
2022/03/02 00:53:06;;;;;;;21.50;11.20;;;;;;;-0.01;80.69;101725.34;108061;1243;61948;-70
2022/03/02 00:55:36;;;;;;;23.30;11.10;;;;;;;0.02;80.47;101723.42;107648;1244;73772;-71
2022/03/02 00:58:07;;;;;;;14.30;7.80;;;;;;;0.09;80.61;101721.44;107985;1243;70642;-67
2022/03/02 01:00:36;;;;;;;17.80;10.00;;;;;;;0.00;81.54;101719.34;107864;1244;71325;-67
2022/03/02 01:03:05;;;;;;;19.70;11.00;;;;;;;0.04;81.12;101715.00;107959;1242;73356;-66
2022/03/02 01:05:34;;;;;;;21.40;11.40;;;;;;;0.01;80.99;101709.73;108055;1243;60155;-67
2022/03/02 01:08:03;;;;;;;16.20;9.10;;;;;;;0.01;80.77;101705.11;108065;1242;60513;-70
2022/03/02 01:10:33;;;;;;;16.40;7.50;;;;;;;-0.05;81.33;101702.11;107975;1243;74100;-68
2022/03/02 01:13:02;;;;;;;22.20;11.00;;;;;;;-0.02;81.38;101702.59;107754;1244;73968;-69
2022/03/02 01:15:31;;;;;;;17.90;10.10;;;;;;;-0.06;81.96;101698.17;107994;1244;68554;-68
2022/03/02 01:18:01;;;;;;;23.30;10.50;;;;;;;0.02;81.58;101695.85;108057;1244;72859;-69
2022/03/02 01:20:30;;;;;;;21.50;11.10;;;;;;;0.01;81.88;101705.97;108302;1244;62185;-69
2022/03/02 01:22:59;;;;;;;19.30;9.90;;;;;;;-0.02;81.58;101699.85;108257;1243;61632;-70
2022/03/02 01:25:28;;;;;;;20.30;11.30;;;;;;;-0.05;81.71;101700.73;107933;1244;74817;-66
2022/03/02 01:27:57;;;;;;;19.10;9.20;;;;;;;-0.09;81.98;101694.63;108015;1244;72911;-68
2022/03/02 01:30:26;;;;;;;20.90;10.00;;;;;;;-0.21;82.71;101691.00;107838;1244;71897;-68
2022/03/02 01:32:56;;;;;;;23.20;11.60;;;;;;;-0.21;82.63;101687.73;108032;1243;72360;-67
2022/03/02 01:35:25;;;;;;;18.90;9.60;;;;;;;-0.15;82.52;101683.05;108008;1244;61403;-69
2022/03/02 01:37:54;;;;;;;22.50;11.40;;;;;;;-0.12;83.11;101681.30;107885;1244;59308;-70
2022/03/02 01:40:23;;;;;;;21.80;10.50;;;;;;;-0.09;82.91;101677.33;107655;1244;71852;-70
2022/03/02 01:42:52;;;;;;;21.30;11.30;;;;;;;-0.10;82.42;101678.54;107723;1244;70691;-68
2022/03/02 01:45:21;;;;;;;21.10;9.20;;;;;;;-0.16;82.58;101674.50;108020;1244;68694;-70
2022/03/02 01:47:51;;;;;;;19.50;9.50;;;;;;;-0.17;82.54;101669.20;107967;1244;72010;-67
2022/03/02 01:50:20;;;;;;;20.20;10.80;;;;;;;-0.19;82.30;101669.58;107918;1244;62079;-66
2022/03/02 01:52:49;;;;;;;23.50;11.20;;;;;;;-0.22;82.81;101667.04;107708;1244;60734;-68
2022/03/02 01:55:18;;;;;;;20.00;10.00;;;;;;;-0.22;83.23;101668.26;107756;1244;74903;-71
2022/03/02 01:57:47;;;;;;;20.80;11.10;;;;;;;-0.17;83.09;101666.81;107865;1244;71920;-68
2022/03/02 02:00:22;;;;;;;17.80;10.90;;;;;;;-0.16;82.73;101663.89;107623;1242;69348;-71
2022/03/02 02:02:52;;;;;;;20.90;11.10;;;;;;;-0.26;83.61;101661.77;107693;1242;74322;-70
2022/03/02 02:05:22;;;;;;;21.90;11.10;;;;;;;-0.23;82.69;101657.13;107872;1244;62681;-69
2022/03/02 02:07:51;;;;;;;16.70;9.60;;;;;;;-0.22;82.51;101653.52;108198;1244;60723;-68
2022/03/02 02:10:20;;;;;;;17.30;10.30;;;;;;;-0.23;83.15;101656.79;107965;1244;74226;-70
2022/03/02 02:12:50;;;;;;;17.70;9.80;;;;;;;-0.20;83.32;101653.14;107906;1243;72465;-69
2022/03/02 02:15:18;;;;;;;18.90;9.80;;;;;;;-0.17;83.80;101651.91;107987;1244;70392;-72
2022/03/02 02:17:48;;;;;;;18.50;9.30;;;;;;;-0.20;83.05;101646.30;108060;1243;74832;-68
2022/03/02 02:20:16;;;;;;;17.80;9.40;;;;;;;-0.22;83.07;101650.44;107976;1243;62000;-69
2022/03/02 02:22:47;;;;;;;21.50;11.40;;;;;;;-0.17;82.88;101645.59;107981;1243;59389;-70
2022/03/02 02:25:16;;;;;;;21.60;8.60;;;;;;;-0.19;82.56;101642.02;108041;1242;74391;-69
2022/03/02 02:27:49;;;;;;;21.60;10.50;;;;;;;-0.25;82.97;101634.90;108053;1243;69998;-69
2022/03/02 02:30:18;;;;;;;16.50;8.60;;;;;;;-0.24;83.61;101633.00;107997;1244;69081;-69
2022/03/02 02:32:47;;;;;;;17.20;8.00;;;;;;;-0.17;83.34;101633.09;107609;1244;73744;-71
2022/03/02 02:35:16;;;;;;;18.50;10.10;;;;;;;-0.16;83.09;101628.79;107835;1242;60080;-70
2022/03/02 02:37:45;;;;;;;22.10;10.30;;;;;;;-0.18;82.84;101630.54;107914;1244;59542;-70
2022/03/02 02:40:19;;;;;;;19.00;10.10;;;;;;;-0.25;82.88;101629.76;108134;1244;72473;-68
2022/03/02 02:42:49;;;;;;;21.50;10.60;;;;;;;-0.21;83.28;101624.73;107923;1244;69557;-67
2022/03/02 02:45:23;;;;;;;17.10;8.80;;;;;;;-0.20;82.90;101622.16;107967;1244;67302;-67
2022/03/02 02:47:55;;;;;;;17.40;9.80;;;;;;;-0.26;83.46;101627.71;108171;1243;73281;-69
2022/03/02 02:50:28;;;;;;;18.40;9.40;;;;;;;-0.21;83.15;101622.87;107839;1243;60987;-68
2022/03/02 02:52:59;;;;;;;14.60;9.30;;;;;;;-0.18;83.27;101615.96;108150;1242;61194;-69
2022/03/02 02:55:30;;;;;;;20.00;10.80;;;;;;;-0.19;83.11;101618.05;107902;1244;73075;-69
2022/03/02 02:58:00;;;;;;;19.00;9.70;;;;;;;-0.20;83.07;101608.80;108119;1243;73183;-69
2022/03/02 03:00:32;;;;;;;18.00;9.30;;;;;;;-0.26;83.26;101611.12;107857;1244;71325;-69
2022/03/02 03:03:02;;;;;;;21.00;10.90;;;;;;;-0.24;83.26;101606.29;107804;1244;71514;-69
2022/03/02 03:05:34;;;;;;;16.40;9.20;;;;;;;-0.27;83.29;101608.73;107676;1244;59560;-69
2022/03/02 03:08:12;;;;;;;17.20;8.40;;;;;;;-0.24;83.28;101605.27;107846;1243;58965;-71
2022/03/02 03:10:43;;;;;;;21.30;9.80;;;;;;;-0.28;83.57;101599.33;108095;1243;71967;-69
2022/03/02 03:13:12;;;;;;;19.90;10.90;;;;;;;-0.21;83.51;101602.48;107819;1243;73224;-69
2022/03/02 03:15:43;;;;;;;18.70;10.20;;;;;;;-0.29;83.77;101601.39;107795;1244;68857;-69
2022/03/02 03:18:12;;;;;;;20.50;8.20;;;;;;;-0.27;83.28;101598.11;108094;1242;74643;-71
2022/03/02 03:20:40;;;;;;;20.70;10.00;;;;;;;-0.33;83.73;101595.63;108058;1243;62701;-71
2022/03/02 03:23:11;;;;;;;18.10;9.40;;;;;;;-0.34;83.95;101591.55;107820;1244;61758;-72
2022/03/02 03:25:40;;;;;;;20.70;11.30;;;;;;;-0.35;84.14;101590.86;108113;1244;73168;-69
2022/03/02 03:28:09;;;;;;;21.60;9.70;;;;;;;-0.41;85.03;101592.80;107867;1243;71368;-71
2022/03/02 03:30:38;;;;;;;20.40;10.20;;;;;;;-0.41;85.08;101592.65;108023;1244;68707;-69
2022/03/02 03:33:07;;;;;;;23.20;11.80;;;;;;;-0.30;84.18;101588.92;108083;1243;72257;-68
2022/03/02 03:35:37;;;;;;;19.80;10.40;;;;;;;-0.36;84.47;101584.38;108031;1243;59598;-69
2022/03/02 03:38:06;;;;;;;15.30;7.60;;;;;;;-0.29;83.57;101582.20;108033;1244;61604;-69
2022/03/02 03:40:35;;;;;;;21.20;10.00;;;;;;;-0.35;83.97;101573.73;108017;1244;73479;-69
2022/03/02 03:43:04;;;;;;;24.70;11.20;;;;;;;-0.35;83.87;101572.38;108051;1242;71958;-69
2022/03/02 03:45:34;;;;;;;22.10;11.40;;;;;;;-0.29;84.25;101570.23;108012;1243;70338;-67
2022/03/02 03:48:04;;;;;;;18.50;10.40;;;;;;;-0.28;84.57;101568.34;107790;1243;74358;-69
2022/03/02 03:50:33;;;;;;;18.10;10.40;;;;;;;-0.29;84.57;101564.77;107865;1244;59553;-67
2022/03/02 03:53:02;;;;;;;21.40;11.20;;;;;;;-0.38;84.64;101563.17;107832;1244;60452;-69
2022/03/02 03:55:31;;;;;;;19.50;9.90;;;;;;;-0.36;84.37;101558.17;107747;1244;73514;-70
2022/03/02 03:58:00;;;;;;;21.70;10.80;;;;;;;-0.37;84.06;101555.28;107788;1243;69884;-69
2022/03/02 04:00:29;;;;;;;18.00;9.70;;;;;;;-0.35;83.97;101552.85;107981;1243;68700;-70
2022/03/02 04:02:58;;;;;;;19.40;10.40;;;;;;;-0.34;84.26;101543.95;108236;1241;72365;-71
2022/03/02 04:05:28;;;;;;;21.60;10.50;;;;;;;-0.37;84.43;101547.23;108160;1241;60339;-70
2022/03/02 04:07:57;;;;;;;19.70;10.50;;;;;;;-0.30;84.05;101544.91;108130;1241;60798;-69
2022/03/02 04:10:26;;;;;;;21.20;10.30;;;;;;;-0.34;84.27;101543.77;108171;1241;75545;-73
2022/03/02 04:12:55;;;;;;;21.10;10.70;;;;;;;-0.31;84.03;101541.34;108178;1241;72979;-70
2022/03/02 04:15:24;;;;;;;21.40;10.80;;;;;;;-0.43;84.75;101540.83;108226;1241;69644;-71
2022/03/02 04:17:53;;;;;;;21.90;12.30;;;;;;;-0.42;84.27;101542.86;108170;1241;73069;-69
2022/03/02 04:20:22;;;;;;;21.60;11.30;;;;;;;-0.38;84.00;101535.80;108150;1241;61651;-71
2022/03/02 04:22:51;;;;;;;20.90;10.90;;;;;;;-0.39;84.32;101532.72;108160;1241;59261;-70
2022/03/02 04:25:20;;;;;;;18.90;9.80;;;;;;;-0.46;85.00;101535.56;108206;1241;75359;-71
2022/03/02 04:27:49;;;;;;;19.40;9.60;;;;;;;-0.40;84.71;101536.51;108185;1240;73329;-71
2022/03/02 04:30:18;;;;;;;22.60;9.50;;;;;;;-0.42;84.52;101532.25;108057;1241;71513;-71
2022/03/02 04:32:48;;;;;;;24.20;12.40;;;;;;;-0.43;84.64;101533.29;107830;1244;71876;-72
2022/03/02 04:35:16;;;;;;;25.40;12.10;;;;;;;-0.41;84.46;101525.71;108099;1241;62088;-70
2022/03/02 04:37:45;;;;;;;18.80;9.60;;;;;;;-0.44;84.79;101531.94;108082;1241;62509;-71
2022/03/02 04:40:15;;;;;;;21.60;9.20;;;;;;;-0.41;84.58;101529.16;108021;1241;74601;-68
2022/03/02 04:42:45;;;;;;;25.30;10.00;;;;;;;-0.38;84.23;101529.11;108053;1241;72191;-70
2022/03/02 04:45:14;;;;;;;21.50;11.40;;;;;;;-0.46;84.87;101530.94;107642;1241;70876;-71
2022/03/02 04:47:44;;;;;;;18.50;10.00;;;;;;;-0.43;84.82;101525.41;107811;1244;75553;-70
2022/03/02 04:50:13;;;;;;;21.50;10.90;;;;;;;-0.37;84.41;101527.21;107793;1244;60008;-70
2022/03/02 04:52:42;;;;;;;20.50;10.50;;;;;;;-0.44;84.75;101527.14;107897;1242;60873;-71
2022/03/02 04:55:11;;;;;;;21.00;9.80;;;;;;;-0.42;84.46;101531.06;107826;1242;75196;-71
2022/03/02 04:57:44;;;;;;;21.90;10.50;;;;;;;-0.40;84.52;101526.58;107856;1243;70507;-71
2022/03/02 05:00:22;;;;;;;20.00;11.40;;;;;;;-0.48;85.02;101525.48;107947;1243;68490;-71
2022/03/02 05:03:01;;;;;;;23.10;12.10;;;;;;;-0.41;84.52;101525.56;107845;1241;74826;-72
2022/03/02 05:05:35;;;;;;;20.80;11.70;;;;;;;-0.41;85.18;101529.48;107573;1244;60651;-72
2022/03/02 05:08:06;;;;;;;20.60;10.80;;;;;;;-0.42;85.29;101525.91;107930;1241;60067;-70
2022/03/02 05:10:35;;;;;;;19.10;9.60;;;;;;;-0.33;85.31;101526.12;107885;1241;72880;-69
2022/03/02 05:13:05;;;;;;;26.00;12.50;;;;;;;-0.24;84.80;101524.98;107913;1242;71587;-73
2022/03/02 05:15:35;;;;;;;18.70;9.30;;;;;;;-0.30;84.93;101527.27;108704;1242;70955;-72
2022/03/02 05:18:04;;;;;;;23.50;12.00;;;;;;;-0.24;84.41;101523.95;107891;1243;74100;-73
2022/03/02 05:20:35;;;;;;;20.30;10.10;;;;;;;-0.35;84.74;101526.33;107769;1244;62524;-79
2022/03/02 05:23:04;;;;;;;19.10;10.30;;;;;;;-0.33;84.42;101521.86;107944;1244;61086;-77
2022/03/02 05:25:33;;;;;;;25.50;12.80;;;;;;;-0.32;84.34;101520.29;107789;1244;74837;-73
2022/03/02 05:28:01;;;;;;;24.20;12.30;;;;;;;-0.36;84.56;101518.98;107758;1244;71809;-71
2022/03/02 05:30:30;;;;;;;20.80;12.00;;;;;;;-0.36;84.99;101518.98;107957;1243;67082;-74
2022/03/02 05:32:59;;;;;;;17.10;9.00;;;;;;;-0.33;84.71;101519.45;107654;1244;71164;-74
2022/03/02 05:35:28;;;;;;;18.60;10.80;;;;;;;-0.33;84.50;101517.05;107903;1243;59647;-71
2022/03/02 05:37:57;;;;;;;19.10;10.10;;;;;;;-0.30;84.44;101517.02;107881;1244;61229;-73
2022/03/02 05:40:26;;;;;;;24.10;11.30;;;;;;;-0.25;84.31;101516.93;107964;1242;74638;-74
2022/03/02 05:42:57;;;;;;;21.30;11.30;;;;;;;-0.23;84.42;101514.16;107794;1244;72574;-73
2022/03/02 05:45:25;;;;;;;18.60;9.40;;;;;;;-0.18;84.05;101512.55;107921;1243;71346;-73
2022/03/02 05:47:54;;;;;;;18.80;9.40;;;;;;;-0.17;83.82;101515.29;108077;1243;72704;-73
2022/03/02 05:50:23;;;;;;;19.60;9.50;;;;;;;-0.23;84.16;101515.38;108138;1242;59775;-73
2022/03/02 05:52:53;;;;;;;19.90;10.40;;;;;;;-0.17;84.09;101511.86;108124;1243;60707;-72
2022/03/02 05:55:22;;;;;;;19.70;10.90;;;;;;;-0.21;84.49;101515.34;107812;1243;421955;-73
2022/03/02 05:57:51;;;;;;;21.80;11.40;;;;;;;-0.19;84.45;101512.21;107980;1244;72987;-73
2022/03/02 06:00:20;;;;;;;24.70;11.30;;;;;;;-0.22;84.33;101508.17;107989;1244;70481;-75
2022/03/02 06:02:50;;;;;;;21.80;11.20;;;;;;;-0.18;84.22;101506.73;107723;1244;72331;-74
2022/03/02 06:05:19;;;;;;;18.10;9.50;;;;;;;-0.15;83.90;101505.99;107907;1244;62091;-73
2022/03/02 06:07:50;;;;;;;18.50;9.50;;;;;;;-0.09;83.87;101501.80;107758;1244;59235;-72
2022/03/02 06:10:21;;;;;;;17.70;8.80;;;;;;;-0.08;83.65;101504.86;107872;1244;72845;-73
2022/03/02 06:12:52;;;;;;;17.60;9.60;;;;;;;-0.06;83.57;101509.11;107917;1241;73230;-72
2022/03/02 06:15:21;;;;;;;16.10;9.00;;;;;;;-0.06;83.52;101506.04;108237;1241;71156;-72
2022/03/02 06:17:50;;;;;;;19.30;10.70;;;;;;;-0.04;83.60;101503.61;108106;1243;75222;-73
2022/03/02 06:20:19;;;;;;;19.90;10.00;;;;;;;-0.12;83.84;101504.91;108116;1244;59194;-73
2022/03/02 06:22:49;;;;;;;19.70;11.10;;;;;;;-0.07;83.69;101505.02;108195;1242;59709;-75
2022/03/02 06:25:18;;;;;;;21.80;12.10;;;;;;;-0.09;83.63;101504.04;107879;1244;74568;-71
2022/03/02 06:27:47;;;;;;;22.40;10.90;;;;;;;-0.03;83.63;101505.65;108063;1242;70286;-72
2022/03/02 06:30:16;;;;;;;18.70;10.00;;;;;;;0.04;83.41;101500.57;108252;1241;67912;-73
2022/03/02 06:32:45;;;;;;;16.80;9.20;;;;;;;0.11;83.07;101498.92;108411;1241;73933;-73
2022/03/02 06:35:14;;;;;;;23.60;10.90;;;;;;;-0.01;83.51;101499.61;108415;1241;60577;-73
2022/03/02 06:37:45;;;;;;;18.70;10.10;;;;;;;0.09;83.71;101500.81;108344;1241;60549;-74
2022/03/02 06:40:14;;;;;;;25.70;12.30;;;;;;;0.19;83.16;101497.90;107956;1244;70699;-74
2022/03/02 06:43:18;;;;;;;23.00;11.60;;;;;;;0.31;82.99;101493.95;107955;1242;70349;-75
2022/03/02 06:45:50;;;;;;;;;;;;;;;0.26;83.03;101489.76;108083;1241;69648;-74
2022/03/02 06:48:25;;;;;;;19.50;10.50;;;;;;;0.40;82.17;101483.16;108137;1241;74460;-74
2022/03/02 06:50:58;;;;;;;24.40;9.90;;;;;;;0.32;82.43;101487.06;108148;1241;62415;-72
2022/03/02 06:53:32;;;;;;;;;;;;;;;0.32;82.55;101483.31;107863;1242;61661;-73
2022/03/02 06:56:10;;;;;;;21.60;12.10;;;;;;;0.35;82.21;101480.86;107942;1241;75644;-73
2022/03/02 06:58:46;;;;;;;23.60;11.50;;;;;;;0.23;82.52;101487.40;108135;1241;72665;-75
2022/03/02 07:01:26;;;;;;;23.80;11.30;;;;;;;0.13;82.78;101477.63;108168;1241;70157;-73
2022/03/02 07:03:58;;;;;;;22.10;11.80;;;;;;;0.07;83.08;101482.20;108028;1241;74294;-73
2022/03/02 07:06:29;;;;;;;22.80;10.70;;;;;;;0.11;83.16;101480.06;108219;1244;61249;-75
2022/03/02 07:09:01;;;;;;;22.00;11.30;;;;;;;-0.01;83.77;101473.76;108849;1242;58895;-75
2022/03/02 07:11:33;;;;;;;27.60;12.50;;;;;;;0.04;83.88;101479.50;108256;1241;75184;-73
2022/03/02 07:14:02;;;;;;;21.50;10.90;;;;;;;0.07;83.53;101475.17;108102;1241;69541;-75
2022/03/02 07:16:32;;;;;;;23.40;12.10;;;;;;;0.08;83.39;101474.82;108312;1241;69041;-74
2022/03/02 07:19:02;;;;;;;24.30;10.30;;;;;;;0.07;83.42;101466.44;108340;1241;71391;-74
2022/03/02 07:21:33;;;;;;;21.10;9.60;;;;;;;0.14;83.11;101468.89;107865;1243;59808;-74
2022/03/02 07:24:16;;;;;;;24.70;13.10;;;;;;;0.11;83.08;101468.77;108045;1244;59770;-74
2022/03/02 07:26:54;;;;;;;24.60;12.80;;;;;;;0.11;82.98;101466.88;107716;1242;73708;-73
2022/03/02 07:29:28;;;;;;;25.90;11.40;;;;;;;0.11;83.43;101466.37;107694;1241;71928;-74
2022/03/02 07:31:57;;;;;;;22.10;11.50;;;;;;;0.19;82.99;101467.06;108113;1241;68798;-75
2022/03/02 07:34:31;;;;;;;25.50;11.80;;;;;;;0.15;83.29;101464.23;107833;1241;73455;-74
2022/03/02 07:37:00;;;;;;;27.30;12.40;;;;;;;0.15;83.43;101464.77;107861;1242;60892;-73
2022/03/02 07:39:30;;;;;;;25.00;11.40;;;;;;;0.18;83.19;101461.44;107827;1241;59540;-75
2022/03/02 07:41:58;;;;;;;22.20;12.60;;;;;;;0.18;83.28;101462.82;107845;1241;74755;-74
2022/03/02 07:44:27;;;;;;;25.40;12.70;;;;;;;0.21;83.24;101461.23;108135;1241;71947;-75
2022/03/02 07:46:58;;;;;;;22.30;11.50;;;;;;;0.19;83.35;101458.53;108103;1242;69879;-75
2022/03/02 07:49:29;;;;;;;27.20;13.70;;;;;;;0.23;83.28;101460.15;107349;1242;75364;-75
2022/03/02 07:52:03;;;;;;;29.90;13.60;;;;;;;0.22;83.64;101454.52;108054;1242;61345;-76
2022/03/02 07:54:37;;;;;;;25.00;13.00;;;;;;;0.32;83.28;101458.30;107847;1244;59950;-75
2022/03/02 07:57:10;;;;;;;24.70;12.80;;;;;;;0.37;83.30;101454.60;108093;1241;74319;-74
2022/03/02 07:59:44;;;;;;;23.10;11.70;;;;;;;0.33;83.38;101451.94;107915;1244;70620;-74
2022/03/02 08:02:15;;;;;;;27.70;14.10;;;;;;;0.41;83.35;101446.46;107755;1241;70652;-73
2022/03/02 08:04:50;;;;;;;27.70;12.80;;;;;;;0.48;83.07;101448.55;107910;1241;74164;-74
2022/03/02 08:07:20;;;;;;;26.40;12.90;;;;;;;0.51;83.16;101439.76;107772;1242;62495;-74
2022/03/02 08:09:53;;;;;;;26.80;12.10;;;;;;;0.57;82.98;101442.57;107393;1241;61869;-75
2022/03/02 08:12:26;;;;;;;22.00;10.40;;;;;;;0.53;83.05;101442.81;107806;1241;74812;-74
2022/03/02 08:14:56;;;;;;;21.50;11.00;;;;;;;0.64;82.73;101439.70;107997;1242;70551;-74
2022/03/02 08:17:25;;;;;;;26.80;12.00;;;;;;;0.61;82.88;101439.23;108289;1242;68708;-75
2022/03/02 08:19:54;;;;;;;18.60;10.80;;;;;;;0.62;82.77;101436.65;107863;1244;72018;-74
2022/03/02 08:22:24;;;;;;;23.10;11.40;;;;;;;0.63;82.88;101436.29;107705;1244;59882;-74
2022/03/02 08:25:12;;;;;;;26.50;13.20;;;;;;;0.66;82.73;101433.83;107787;1241;61354;-72
2022/03/02 08:27:44;;;;;;;24.80;13.40;;;;;;;0.66;83.21;101431.92;108132;1241;74041;-76
2022/03/02 08:30:15;;;;;;;20.90;11.50;;;;;;;0.57;83.80;101432.13;107843;1244;72087;-73
2022/03/02 08:32:48;;;;;;;23.80;11.40;;;;;;;0.62;83.59;101435.60;107744;1241;69587;-74
2022/03/02 08:35:17;;;;;;;19.80;9.00;;;;;;;0.70;82.95;101429.27;107922;1244;71963;-76
2022/03/02 08:37:47;;;;;;;23.10;12.40;;;;;;;0.70;82.72;101428.42;107910;1244;61054;-76
2022/03/02 08:40:16;;;;;;;24.60;12.80;;;;;;;0.73;83.05;101424.59;108090;1241;59357;-76
2022/03/02 08:42:47;;;;;;;28.10;13.80;;;;;;;0.69;83.41;101422.10;108100;1241;72423;-75
2022/03/02 08:45:16;;;;;;;23.80;12.70;;;;;;;0.81;83.11;101420.99;108029;1241;73147;-74
2022/03/02 08:47:45;;;;;;;27.20;13.10;;;;;;;0.82;83.07;101419.09;107761;1242;70927;-75
2022/03/02 08:50:14;;;;;;;14.40;6.90;;;;;;;0.84;83.09;101417.68;107771;1244;72518;-74
2022/03/02 08:52:42;;;;;;;25.00;12.60;;;;;;;0.84;83.13;101422.48;108016;1241;62351;-75
2022/03/02 08:55:11;;;;;;;22.20;11.90;;;;;;;0.89;83.15;101418.77;108031;1241;59781;-75
2022/03/02 08:57:43;;;;;;;22.90;12.70;;;;;;;0.88;83.75;101416.41;108186;1241;72414;-74
2022/03/02 09:00:16;;;;;;;20.80;12.40;;;;;;;0.84;83.58;101414.60;107882;1244;72252;-72
2022/03/02 09:02:46;;;;;;;23.50;11.70;;;;;;;0.84;83.71;101414.26;107700;1243;71366;-73
2022/03/02 09:05:16;;;;;;;21.90;13.20;;;;;;;0.81;83.41;101413.64;108241;1241;73532;-73
2022/03/02 09:07:46;;;;;;;23.40;12.40;;;;;;;0.84;84.16;101410.30;107859;1241;61750;-74
2022/03/02 09:10:15;;;;;;;20.50;10.60;;;;;;;0.87;84.10;101406.32;108200;1241;59540;-75
2022/03/02 09:12:44;;;;;;;19.00;11.00;;;;;;;0.70;84.05;101406.13;108230;1241;72349;-77
2022/03/02 09:15:13;;;;;;;20.50;11.20;;;;;;;0.77;84.26;101405.31;107952;1244;70407;-75
2022/03/02 09:17:42;;;;;;;23.30;11.10;;;;;;;0.86;83.73;101401.18;107990;1244;70578;-74
2022/03/02 09:20:12;;;;;;;21.30;9.50;;;;;;;0.85;83.82;101401.21;107840;1244;74623;-73
2022/03/02 09:22:41;;;;;;;22.00;12.20;;;;;;;0.91;83.85;101398.85;108057;1241;62361;-74
2022/03/02 09:25:10;;;;;;;20.90;12.90;;;;;;;0.94;83.82;101399.13;107817;1241;59919;-75
2022/03/02 09:27:41;;;;;;;23.30;12.40;;;;;;;0.99;84.00;101399.17;107827;1241;75039;-73
2022/03/02 09:30:11;;;;;;;21.40;11.80;;;;;;;0.93;83.86;101399.48;107797;1244;73456;-75
2022/03/02 09:32:42;;;;;;;19.40;11.40;;;;;;;0.79;84.67;101397.55;107902;1244;71781;-74
2022/03/02 09:35:15;;;;;;;24.30;12.10;;;;;;;0.87;84.36;101394.80;107838;1243;73453;-73
2022/03/02 09:37:49;;;;;;;25.20;11.80;;;;;;;0.90;84.54;101386.86;107872;1244;60271;-73
2022/03/02 09:40:31;;;;;;;21.40;11.30;;;;;;;1.02;84.15;101380.75;107925;1241;61763;-74
2022/03/02 09:43:02;;;;;;;23.80;12.70;;;;;;;1.02;84.13;101377.85;108117;1242;73357;-77
2022/03/02 09:45:34;;;;;;;25.30;12.30;;;;;;;1.11;84.50;101375.59;108271;1244;70349;-73
2022/03/02 09:48:04;;;;;;;21.80;12.20;;;;;;;1.24;84.33;101376.66;108281;1244;69705;-76
2022/03/02 09:50:37;;;;;;;17.90;9.20;;;;;;;1.23;83.61;101374.97;108552;1241;71608;-75
2022/03/02 09:53:14;;;;;;;21.60;10.90;;;;;;;1.10;83.16;101377.67;108290;1241;62526;-73
2022/03/02 09:55:44;;;;;;;18.90;9.90;;;;;;;1.17;83.69;101371.84;107917;1241;60383;-75
2022/03/02 09:58:15;;;;;;;20.40;10.70;;;;;;;1.18;83.76;101367.37;107791;1245;72591;-75
2022/03/02 10:00:47;;;;;;;22.50;12.20;;;;;;;1.23;84.00;101365.88;108029;1244;72172;-73
2022/03/02 10:03:20;;;;;;;22.60;13.00;;;;;;;1.19;84.22;101362.36;108122;1241;71545;-73
2022/03/02 10:05:52;;;;;;;22.00;12.00;;;;;;;1.21;84.18;101361.64;107983;1242;74652;-74
2022/03/02 10:08:23;;;;;;;22.50;12.80;;;;;;;1.20;84.16;101363.88;107977;1241;59639;-73
2022/03/02 10:11:02;;;;;;;21.00;12.90;;;;;;;1.29;83.60;101356.80;107974;1244;59733;-73
2022/03/02 10:13:31;;;;;;;22.60;12.50;;;;;;;1.09;83.89;101355.71;108106;1244;74807;-74
2022/03/02 10:16:04;;;;;;;18.60;10.10;;;;;;;1.18;83.83;101347.96;108280;1241;70300;-73
2022/03/02 10:18:35;;;;;;;24.80;13.90;;;;;;;1.32;83.57;101345.75;107939;1244;69735;-74
2022/03/02 10:21:05;;;;;;;23.20;11.80;;;;;;;1.35;83.07;101344.30;108043;1242;74243;-74
2022/03/02 10:23:42;;;;;;;32.70;16.00;;;;;;;1.21;82.99;101333.15;107830;1244;60343;-73
2022/03/02 10:26:25;;;;;;;37.00;17.30;;;;;;;1.20;83.63;101329.56;107724;1241;60056;-74
2022/03/02 10:29:07;;;;;;;49.40;18.90;;;;;;;1.08;84.00;101328.13;107768;1241;74386;-74
2022/03/02 10:31:52;;;;;;;43.50;18.30;;;;;;;1.10;84.50;101319.85;107976;1244;70836;-74
2022/03/02 10:34:27;;;;;;;49.80;21.60;;;;;;;1.07;84.71;101315.46;108124;1241;69415;-74
2022/03/02 10:37:20;;;;;;;43.40;18.90;;;;;;;0.96;84.54;101310.05;107999;1241;73494;-73
2022/03/02 10:39:57;;;;;;;33.50;16.00;;;;;;;0.95;84.76;101310.59;108045;1241;63288;-75
2022/03/02 10:42:33;;;;;;;35.70;16.40;;;;;;;0.97;85.00;101304.38;107764;1244;61942;-73
2022/03/02 10:45:19;;;;;;;52.10;23.60;;;;;;;0.90;85.32;101299.05;108192;1241;74088;-73
2022/03/02 10:48:38;;;;;;;68.30;26.50;;;;;;;0.91;86.17;101295.41;107774;1244;70640;-73
2022/03/02 10:51:08;;;;;;;65.80;26.10;;;;;;;0.90;86.29;101290.65;107881;1241;70882;-72
2022/03/02 10:53:41;;;;;;;60.10;22.70;;;;;;;0.99;86.41;101288.71;107783;1244;71989;-74
2022/03/02 10:56:13;;;;;;;65.00;24.70;;;;;;;0.98;85.62;101285.64;107814;1241;61268;-73
2022/03/02 10:58:49;;;;;;;66.30;23.50;;;;;;;0.93;85.14;101282.67;107973;1243;60921;-73
2022/03/02 11:01:20;;;;;;;59.00;22.10;;;;;;;0.88;85.68;101282.11;107847;1244;72469;-74
2022/03/02 11:03:49;;;;;;;59.70;25.00;;;;;;;0.89;85.76;101281.92;107909;1244;70469;-73
2022/03/02 11:06:22;;;;;;;71.30;26.90;;;;;;;0.83;85.58;101281.36;107807;1244;69668;-71
2022/03/02 11:08:55;;;;;;;58.10;22.70;;;;;;;0.85;85.77;101280.64;107853;1242;74477;-76
2022/03/02 11:11:26;;;;;;;63.30;27.10;;;;;;;0.86;85.46;101274.44;107844;1242;61526;-73
2022/03/02 11:13:55;;;;;;;65.70;26.60;;;;;;;0.88;86.11;101268.41;107903;1244;61737;-73
2022/03/02 11:16:25;;;;;;;59.60;26.10;;;;;;;0.85;86.27;101271.39;107923;1241;75059;-73
2022/03/02 11:18:55;;;;;;;54.80;23.90;;;;;;;0.88;86.17;101264.96;107929;1244;70532;-72
2022/03/02 11:21:32;;;;;;;61.70;25.30;;;;;;;0.90;86.12;101264.58;108165;1241;71324;-73
2022/03/02 11:24:04;;;;;;;49.20;21.20;;;;;;;0.84;86.09;101264.88;108198;1241;69902;-72